Time;durP1;ratioP1;P1;durP2;ratioP2;P2;SDS_P1;SDS_P2;PMS_P1;PMS_P2;Temp;Humidity;BMP_temperature;BMP_pressure;BME280_temperature;BME280_humidity;BME280_pressure;Samples;Min_cycle;Max_cycle;Signal;HPM_P1;HPM_P2
2022/06/07 00:01:25;;;;;;;0.70;0.70;;;21.60;56.50;;;;;;5123892;27;20606;-46
2022/06/07 00:04:07;;;;;;;1.30;0.90;;;21.50;56.40;;;;;;5098977;27;20585;-46
2022/06/07 00:06:48;;;;;;;1.23;1.10;;;21.50;56.50;;;;;;5095250;27;20540;-47
2022/06/07 00:09:29;;;;;;;1.20;1.00;;;21.60;56.70;;;;;;5125024;27;21102;-48
2022/06/07 00:12:11;;;;;;;2.50;1.10;;;21.50;56.40;;;;;;5065987;27;20540;-49
2022/06/07 00:14:51;;;;;;;1.27;0.98;;;21.50;56.50;;;;;;5133618;27;1220078;-47
2022/06/07 00:17:32;;;;;;;0.93;0.90;;;21.50;56.50;;;;;;5074546;27;20963;-48
2022/06/07 00:20:13;;;;;;;0.83;0.80;;;21.50;56.50;;;;;;5105200;27;20528;-49
2022/06/07 00:22:53;;;;;;;1.07;0.97;;;21.50;56.60;;;;;;5066250;27;20550;-47
2022/06/07 00:25:35;;;;;;;0.90;0.90;;;21.50;56.50;;;;;;5147271;27;20584;-47
2022/06/07 00:28:18;;;;;;;1.20;1.10;;;21.50;56.50;;;;;;5108625;27;21198;-48
2022/06/07 00:30:59;;;;;;;1.10;1.00;;;21.50;56.60;;;;;;5087781;28;20520;-47
2022/06/07 00:33:40;;;;;;;1.03;0.93;;;21.50;56.60;;;;;;5087558;28;20585;-47
2022/06/07 00:36:22;;;;;;;1.10;1.00;;;21.50;56.50;;;;;;5103337;27;20534;-48
2022/06/07 00:39:04;;;;;;;0.93;0.93;;;21.50;56.50;;;;;;5070011;28;20545;-47
2022/06/07 00:41:44;;;;;;;1.20;1.00;;;21.50;56.60;;;;;;5063593;28;20897;-48
2022/06/07 00:44:33;;;;;;;1.30;0.83;;;21.50;56.60;;;;;;5088015;27;20527;-47
2022/06/07 00:47:17;;;;;;;0.90;0.60;;;21.50;56.60;;;;;;5062543;27;20526;-48
2022/06/07 00:50:03;;;;;;;0.80;0.80;;;21.50;56.60;;;;;;5059363;27;20532;-48
2022/06/07 00:52:43;;;;;;;1.17;0.80;;;21.50;56.70;;;;;;5046907;28;20532;-46
2022/06/07 00:55:23;;;;;;;1.20;1.00;;;21.50;56.50;;;;;;5084367;28;20535;-48
2022/06/07 00:58:06;;;;;;;0.83;0.77;;;21.50;56.60;;;;;;5106090;27;20605;-45
2022/06/07 01:00:52;;;;;;;0.60;0.60;;;21.50;56.70;;;;;;5087395;28;20577;-48
2022/06/07 01:03:33;;;;;;;1.40;0.70;;;21.50;56.60;;;;;;5087016;28;20527;-47
2022/06/07 01:12:11;;;;;;;1.50;0.87;;;21.50;56.60;;;;;;5100776;27;20620;-49
2022/06/07 01:14:53;;;;;;;1.00;0.90;;;21.40;56.40;;;;;;5068177;28;20521;-48
2022/06/07 01:17:34;;;;;;;1.00;0.90;;;21.40;56.50;;;;;;5040392;27;20565;-47
2022/06/07 01:20:14;;;;;;;1.20;1.10;;;21.40;56.50;;;;;;5083077;28;20535;-47
2022/06/07 01:22:55;;;;;;;0.80;0.70;;;21.40;56.60;;;;;;5068126;27;20530;-48
2022/06/07 01:25:37;;;;;;;0.73;0.73;;;21.40;56.50;;;;;;5112256;27;20533;-49
2022/06/07 01:28:18;;;;;;;1.30;0.90;;;21.40;56.60;;;;;;5048251;27;20948;-48
2022/06/07 01:30:59;;;;;;;1.00;0.90;;;21.40;56.50;;;;;;5090477;28;20958;-46
2022/06/07 01:33:39;;;;;;;0.93;0.87;;;21.40;56.70;;;;;;5083776;28;20540;-48
2022/06/07 01:36:21;;;;;;;0.83;0.83;;;21.40;56.50;;;;;;5138613;27;21058;-48
2022/06/07 01:41:58;;;;;;;1.37;0.97;;;21.40;56.60;;;;;;5077525;27;20612;-48
2022/06/07 01:44:45;;;;;;;1.47;1.00;;;21.40;56.50;;;;;;5127642;27;20521;-48
2022/06/07 01:47:29;;;;;;;1.13;0.80;;;21.40;56.50;;;;;;5053550;28;20971;-50
2022/06/07 01:50:12;;;;;;;0.80;0.80;;;21.40;56.70;;;;;;5079838;28;20577;-49
2022/06/07 01:52:53;;;;;;;0.87;0.67;;;21.30;56.50;;;;;;5099351;27;20550;-49
2022/06/07 01:55:42;;;;;;;1.27;1.00;;;21.40;56.60;;;;;;5124645;27;20586;-47
2022/06/07 01:58:24;;;;;;;1.20;0.93;;;21.40;56.60;;;;;;5062408;27;21085;-46
2022/06/07 02:01:04;;;;;;;0.93;0.77;;;21.30;56.50;;;;;;5087283;28;20524;-47
2022/06/07 02:03:45;;;;;;;1.27;0.97;;;21.30;56.40;;;;;;5120527;27;20531;-49
2022/06/07 02:06:27;;;;;;;0.80;0.80;;;21.30;56.60;;;;;;5084790;27;20514;-47
2022/06/07 02:09:09;;;;;;;0.93;0.90;;;21.30;56.50;;;;;;5115025;27;21110;-47
2022/06/07 02:11:51;;;;;;;1.00;0.90;;;21.30;56.60;;;;;;5052766;28;21059;-48
2022/06/07 02:14:34;;;;;;;0.90;0.87;;;21.30;57.80;;;;;;5087372;28;21111;-47
2022/06/07 02:17:14;;;;;;;0.80;0.80;;;21.30;56.50;;;;;;5065027;27;20545;-49
2022/06/07 02:20:10;;;;;;;1.73;0.97;;;21.30;56.60;;;;;;5088265;28;20519;-47
2022/06/07 02:22:51;;;;;;;1.07;0.83;;;21.30;56.70;;;;;;5112305;27;20600;-47
2022/06/07 02:25:42;;;;;;;0.70;0.70;;;21.30;56.70;;;;;;5083656;28;20564;-48
2022/06/07 02:28:27;;;;;;;1.07;0.77;;;21.30;56.60;;;;;;5067244;27;20959;-48
2022/06/07 02:31:10;;;;;;;0.70;0.70;;;21.30;56.60;;;;;;5128173;27;20506;-49
2022/06/07 02:33:51;;;;;;;1.00;0.80;;;21.30;56.70;;;;;;5081895;27;20516;-47
2022/06/07 02:36:32;;;;;;;0.80;0.80;;;21.30;56.70;;;;;;5141282;27;20679;-48
2022/06/07 02:39:14;;;;;;;0.80;0.80;;;21.30;56.60;;;;;;5072614;27;20603;-47
2022/06/07 02:41:55;;;;;;;1.60;0.77;;;21.30;56.70;;;;;;5064085;28;20602;-47
2022/06/07 02:44:37;;;;;;;1.20;0.93;;;21.30;56.70;;;;;;5112754;27;20576;-47
2022/06/07 02:47:18;;;;;;;0.80;0.60;;;21.20;56.40;;;;;;5113959;27;20536;-48
2022/06/07 02:50:05;;;;;;;0.80;0.80;;;21.20;56.50;;;;;;5102244;27;20941;-49
2022/06/07 02:52:49;;;;;;;0.70;0.70;;;21.20;56.50;;;;;;5083109;27;20544;-50
2022/06/07 02:55:36;;;;;;;1.43;0.77;;;21.20;56.60;;;;;;5083797;28;20930;-49
2022/06/07 02:58:27;;;;;;;1.00;0.70;;;21.20;56.40;;;;;;5058702;28;21119;-48
2022/06/07 03:01:17;;;;;;;0.90;0.90;;;21.20;57.70;;;;;;5084893;27;20516;-47
2022/06/07 03:04:00;;;;;;;1.07;0.70;;;21.20;56.50;;;;;;5124410;27;20525;-48
2022/06/07 03:06:45;;;;;;;0.90;0.70;;;21.20;56.40;;;;;;5076391;27;20538;-49
2022/06/07 03:09:28;;;;;;;1.07;0.87;;;21.20;56.60;;;;;;5083417;28;20531;-48
2022/06/07 03:12:11;;;;;;;2.13;0.80;;;21.10;56.40;;;;;;5077876;27;20532;-48
2022/06/07 03:14:52;;;;;;;1.17;1.03;;;21.20;56.60;;;;;;5107823;27;20917;-48
2022/06/07 03:17:35;;;;;;;0.97;0.87;;;21.20;56.50;;;;;;5078554;27;20580;-48
2022/06/07 03:20:16;;;;;;;1.40;0.80;;;21.10;56.60;;;;;;5134326;27;20517;-47
2022/06/07 03:22:58;;;;;;;0.77;0.77;;;21.10;56.60;;;;;;5082069;27;20537;-47
2022/06/07 03:25:39;;;;;;;1.87;0.77;;;21.10;56.50;;;;;;5068972;27;20603;-47
2022/06/07 03:28:21;;;;;;;1.20;0.70;;;21.10;56.50;;;;;;5057985;27;20535;-48
2022/06/07 03:31:12;;;;;;;1.40;1.00;;;21.10;56.40;;;;;;5087810;27;20553;-46
2022/06/07 03:33:55;;;;;;;1.53;0.83;;;21.10;56.50;;;;;;5129465;27;20573;-47
2022/06/07 03:36:38;;;;;;;1.43;1.13;;;21.10;56.50;;;;;;5082666;27;20599;-47
2022/06/07 03:39:21;;;;;;;2.00;1.20;;;21.10;56.50;;;;;;5127953;27;20942;-49
2022/06/07 03:42:13;;;;;;;1.53;0.90;;;21.10;56.60;;;;;;5097049;27;20688;-47
2022/06/07 03:44:58;;;;;;;0.50;0.50;;;21.10;56.40;;;;;;5107458;27;20518;-49
2022/06/07 03:47:38;;;;;;;0.80;0.70;;;21.10;57.80;;;;;;5066428;27;20548;-48
2022/06/07 03:50:22;;;;;;;2.03;1.03;;;21.10;56.40;;;;;;5084469;28;20651;-48
2022/06/07 03:53:07;;;;;;;0.83;0.83;;;21.10;56.50;;;;;;5069450;27;20963;-48
2022/06/07 03:55:54;;;;;;;1.00;1.00;;;21.00;56.40;;;;;;5084182;27;20869;-45
2022/06/07 03:58:40;;;;;;;1.73;1.00;;;21.10;56.60;;;;;;5078924;27;20549;-47
2022/06/07 04:01:23;;;;;;;1.10;0.90;;;21.00;56.40;;;;;;5128720;27;21051;-48
2022/06/07 04:04:09;;;;;;;1.60;0.90;;;21.00;56.50;;;;;;5118000;27;20575;-47
2022/06/07 04:09:55;;;;;;;1.23;1.13;;;21.00;56.60;;;;;;5083703;28;20590;-49
2022/06/07 04:12:46;;;;;;;0.60;0.60;;;21.00;56.60;;;;;;5071158;27;20889;-46
2022/06/07 04:15:28;;;;;;;1.10;0.70;;;21.00;56.60;;;;;;5110786;27;20522;-49
2022/06/07 04:18:09;;;;;;;0.80;0.80;;;21.00;56.50;;;;;;5071125;27;20560;-49
2022/06/07 04:20:51;;;;;;;0.83;0.83;;;21.00;56.50;;;;;;5095152;27;20522;-48
2022/06/07 04:23:35;;;;;;;2.60;0.90;;;21.00;56.50;;;;;;5065424;27;20546;-48
2022/06/07 04:26:17;;;;;;;0.90;0.90;;;21.00;56.50;;;;;;5124100;27;20850;-47
2022/06/07 04:29:00;;;;;;;1.37;0.77;;;21.00;56.50;;;;;;5081837;27;21129;-48
2022/06/07 04:31:46;;;;;;;0.80;0.80;;;21.00;56.20;;;;;;5081807;27;20600;-47
2022/06/07 04:34:32;;;;;;;0.80;0.80;;;21.00;56.40;;;;;;5086619;27;20656;-47
2022/06/07 04:37:12;;;;;;;0.70;0.70;;;21.00;56.50;;;;;;5115892;27;20578;-46
2022/06/07 04:39:55;;;;;;;0.70;0.70;;;21.00;56.60;;;;;;5066932;28;20596;-47
2022/06/07 04:42:36;;;;;;;0.60;0.60;;;20.90;56.50;;;;;;5067797;28;20538;-46
2022/06/07 04:45:22;;;;;;;1.13;1.03;;;20.90;56.60;;;;;;5090894;27;20516;-47
2022/06/07 04:48:20;;;;;;;1.10;1.00;;;20.90;56.60;;;;;;5089003;27;20579;-49
2022/06/07 04:51:08;;;;;;;0.70;0.70;;;20.90;56.60;;;;;;5120265;27;20529;-47
2022/06/07 04:53:57;;;;;;;0.97;0.80;;;20.90;56.50;;;;;;5112274;27;20577;-49
2022/06/07 04:56:40;;;;;;;0.80;0.77;;;20.90;56.50;;;;;;5093242;27;21048;-48
2022/06/07 04:59:25;;;;;;;1.53;0.53;;;20.90;56.60;;;;;;5083237;27;20589;-47
2022/06/07 05:02:11;;;;;;;1.13;1.03;;;20.90;56.70;;;;;;5075000;27;20534;-46
2022/06/07 05:04:52;;;;;;;0.70;0.70;;;20.90;56.60;;;;;;5086021;28;20528;-49
2022/06/07 05:07:38;;;;;;;0.90;0.73;;;20.90;56.60;;;;;;5103949;27;20547;-46
2022/06/07 05:10:23;;;;;;;0.80;0.80;;;20.90;56.70;;;;;;5103709;27;20555;-45
2022/06/07 05:13:15;;;;;;;0.80;0.80;;;20.90;56.50;;;;;;5035893;27;20604;-48
2022/06/07 05:15:56;;;;;;;0.90;0.73;;;20.90;56.60;;;;;;5087027;27;20519;-47
2022/06/07 05:18:43;;;;;;;1.07;0.70;;;20.90;56.90;;;;;;5072565;28;20545;-47
2022/06/07 05:21:26;;;;;;;0.87;0.70;;;20.90;57.90;;;;;;5104612;27;20538;-48
2022/06/07 05:24:09;;;;;;;0.90;0.77;;;20.90;56.60;;;;;;5087190;27;20934;-48
2022/06/07 05:26:53;;;;;;;0.80;0.70;;;20.90;56.60;;;;;;5079693;27;20599;-49
2022/06/07 05:29:47;;;;;;;2.27;0.80;;;20.90;56.60;;;;;;5087449;28;20572;-46
2022/06/07 05:32:37;;;;;;;0.70;0.67;;;20.90;56.10;;;;;;5062987;27;20546;-48
2022/06/07 05:35:19;;;;;;;0.60;0.60;;;20.90;56.40;;;;;;5083900;28;20530;-47
2022/06/07 05:38:12;;;;;;;0.80;0.80;;;20.90;56.10;;;;;;5034474;27;20549;-47
2022/06/07 05:40:54;;;;;;;1.20;0.80;;;20.90;56.20;;;;;;5125099;27;20575;-48
2022/06/07 05:43:37;;;;;;;0.77;0.77;;;20.90;56.40;;;;;;5066917;28;21052;-47
2022/06/07 05:46:19;;;;;;;1.50;0.83;;;20.90;56.40;;;;;;5090198;27;20519;-47
2022/06/07 05:49:09;;;;;;;1.00;0.80;;;20.80;56.00;;;;;;5120782;27;20950;-47
2022/06/07 05:52:12;;;;;;;1.33;1.10;;;20.90;56.30;;;;;;5069270;27;20546;-48
2022/06/07 05:54:54;;;;;;;1.00;0.70;;;20.80;56.00;;;;;;5131720;27;1249986;-46
2022/06/07 05:57:35;;;;;;;1.10;0.70;;;20.80;55.90;;;;;;5051152;28;20535;-49
2022/06/07 06:00:20;;;;;;;0.97;0.80;;;20.80;55.60;;;;;;5086244;28;20520;-47
2022/06/07 06:03:03;;;;;;;0.73;0.73;;;20.80;55.90;;;;;;5098725;27;20550;-48
2022/06/07 06:05:52;;;;;;;1.13;0.90;;;20.80;56.00;;;;;;5087273;28;20946;-47
2022/06/07 06:11:42;;;;;;;1.10;1.00;;;20.80;56.30;;;;;;5099117;27;20547;-46
2022/06/07 06:14:48;;;;;;;1.00;0.80;;;20.80;57.50;;;;;;5087586;28;20524;-48
2022/06/07 06:17:34;;;;;;;0.90;0.90;;;20.80;56.30;;;;;;5067443;27;20548;-46
2022/06/07 06:20:28;;;;;;;1.20;0.90;;;20.80;56.20;;;;;;5084451;28;20598;-47
2022/06/07 06:23:12;;;;;;;1.17;1.07;;;20.80;56.30;;;;;;5082176;27;20537;-47
2022/06/07 06:25:54;;;;;;;1.00;0.90;;;20.80;56.30;;;;;;5082954;27;20660;-48
2022/06/07 06:28:35;;;;;;;1.20;1.10;;;20.80;56.60;;;;;;5107030;27;20598;-49
2022/06/07 06:31:18;;;;;;;1.00;0.70;;;20.80;56.30;;;;;;5085770;27;21096;-47
2022/06/07 06:33:58;;;;;;;1.10;0.90;;;20.80;56.40;;;;;;5041155;28;20477;-48
2022/06/07 06:36:44;;;;;;;2.50;1.13;;;20.80;56.30;;;;;;5119742;27;20591;-47
2022/06/07 06:39:34;;;;;;;1.27;0.90;;;20.80;56.30;;;;;;5078275;27;20533;-48
2022/06/07 06:42:13;;;;;;;0.87;0.60;;;20.80;56.00;;;;;;5115050;27;20585;-49
2022/06/07 06:45:20;;;;;;;1.10;0.80;;;20.80;56.50;;;;;;5107337;27;20575;-48
2022/06/07 06:48:07;;;;;;;0.97;0.70;;;20.80;56.30;;;;;;5038521;27;21079;-47
2022/06/07 06:50:48;;;;;;;1.50;1.10;;;20.70;56.30;;;;;;5078286;27;20528;-48
2022/06/07 06:53:31;;;;;;;0.93;0.70;;;20.70;56.20;;;;;;5066906;28;20550;-48
2022/06/07 06:56:22;;;;;;;0.97;0.80;;;20.80;56.40;;;;;;5082383;27;20549;-46
2022/06/07 06:59:02;;;;;;;1.20;1.10;;;20.70;56.20;;;;;;5081405;27;20946;-49
2022/06/07 07:01:44;;;;;;;1.30;0.93;;;20.70;56.10;;;;;;5119295;27;20831;-47
2022/06/07 07:04:25;;;;;;;1.03;0.90;;;20.70;56.20;;;;;;5085253;28;20581;-48
2022/06/07 07:07:08;;;;;;;1.10;1.00;;;20.70;56.00;;;;;;5110704;27;20591;-49
2022/06/07 07:09:50;;;;;;;2.33;1.10;;;20.70;55.70;;;;;;5085082;27;21063;-50
2022/06/07 07:12:32;;;;;;;2.10;1.20;;;20.70;55.50;;;;;;5108927;27;20971;-48
2022/06/07 07:15:18;;;;;;;2.03;1.20;;;20.70;55.80;;;;;;5087591;28;20593;-47
2022/06/07 07:18:09;;;;;;;1.30;1.20;;;20.70;55.90;;;;;;5057616;28;20617;-46
2022/06/07 07:21:00;;;;;;;2.03;1.33;;;20.70;56.10;;;;;;5086495;27;21060;-48
2022/06/07 07:23:40;;;;;;;4.00;1.27;;;20.70;56.10;;;;;;5084833;27;20578;-48
2022/06/07 07:26:24;;;;;;;2.00;1.10;;;20.70;56.20;;;;;;5079463;28;20602;-49
2022/06/07 07:29:05;;;;;;;2.17;1.97;;;20.70;56.30;;;;;;5113877;27;21127;-47
2022/06/07 07:31:46;;;;;;;1.93;1.30;;;20.70;56.30;;;;;;5113344;27;20535;-49
2022/06/07 07:34:27;;;;;;;1.57;1.23;;;20.70;56.40;;;;;;5081883;27;20540;-48
2022/06/07 07:37:10;;;;;;;1.57;1.20;;;20.70;56.40;;;;;;5066666;27;20581;-46
2022/06/07 07:39:52;;;;;;;1.90;1.07;;;20.70;56.30;;;;;;5104280;27;20589;-47
2022/06/07 07:42:35;;;;;;;1.10;1.00;;;20.70;56.40;;;;;;5103972;27;20662;-49
2022/06/07 07:45:23;;;;;;;2.20;1.43;;;20.70;56.40;;;;;;5102610;27;20519;-47
2022/06/07 07:48:08;;;;;;;1.40;1.10;;;20.70;56.50;;;;;;5037137;27;20567;-48
2022/06/07 07:50:53;;;;;;;1.33;1.23;;;20.70;56.50;;;;;;5130497;27;20508;-45
2022/06/07 07:53:35;;;;;;;1.20;1.00;;;20.70;56.60;;;;;;5066394;27;20974;-48
2022/06/07 07:56:16;;;;;;;1.50;1.03;;;20.70;56.50;;;;;;5122800;27;20537;-49
2022/06/07 07:59:00;;;;;;;1.87;1.30;;;20.70;56.50;;;;;;5092570;27;20544;-48
2022/06/07 08:01:42;;;;;;;1.43;1.33;;;20.70;56.50;;;;;;5052222;27;20617;-48
2022/06/07 08:04:24;;;;;;;1.00;1.00;;;20.70;56.50;;;;;;5078294;27;20585;-47
2022/06/07 08:07:07;;;;;;;1.27;1.17;;;20.70;56.50;;;;;;5112279;27;20534;-49
2022/06/07 08:09:48;;;;;;;4.37;1.30;;;20.70;56.50;;;;;;5084362;27;20893;-47
2022/06/07 08:12:29;;;;;;;1.40;1.30;;;20.70;56.70;;;;;;5092442;27;20537;-48
2022/06/07 08:15:12;;;;;;;1.30;1.20;;;20.70;56.60;;;;;;5127912;27;20574;-48
2022/06/07 08:17:54;;;;;;;1.33;0.97;;;20.70;56.60;;;;;;5048856;28;21081;-47
2022/06/07 08:20:37;;;;;;;1.43;1.10;;;20.70;56.50;;;;;;5086351;27;20520;-48
2022/06/07 08:23:18;;;;;;;2.23;1.20;;;20.70;56.50;;;;;;5076819;27;20603;-47
2022/06/07 08:26:01;;;;;;;1.80;1.70;;;20.70;56.60;;;;;;5084767;28;20593;-47
2022/06/07 08:28:44;;;;;;;1.17;1.00;;;20.70;56.50;;;;;;5087848;27;20605;-47
2022/06/07 08:31:28;;;;;;;1.27;1.00;;;20.70;56.50;;;;;;5106097;27;20580;-49
2022/06/07 08:40:27;;;;;;;1.13;1.03;;;20.60;56.40;;;;;;5125253;27;20598;-47
2022/06/07 08:43:15;;;;;;;1.10;0.83;;;20.60;56.40;;;;;;5039004;27;20539;-45
2022/06/07 08:45:57;;;;;;;1.90;1.20;;;20.70;56.60;;;;;;5076689;28;20537;-46
2022/06/07 08:48:37;;;;;;;2.00;1.13;;;20.70;56.50;;;;;;5106185;27;20590;-49
2022/06/07 08:51:25;;;;;;;1.80;1.10;;;20.70;56.60;;;;;;5081012;28;20564;-47
2022/06/07 08:54:17;;;;;;;1.30;1.10;;;20.60;56.60;;;;;;5086913;28;20598;-48
2022/06/07 08:57:02;;;;;;;1.47;1.03;;;20.60;56.60;;;;;;5112866;27;20571;-47
2022/06/07 08:59:46;;;;;;;1.20;1.10;;;20.60;56.60;;;;;;5126801;27;20542;-48
2022/06/07 09:03:18;;;;;;;1.50;1.10;;;20.60;56.70;;;;;;5140457;27;20571;-49
2022/06/07 09:06:03;;;;;;;1.00;0.90;;;20.60;56.60;;;;;;5126482;27;20889;-47
2022/06/07 09:08:49;;;;;;;2.10;1.27;;;20.60;56.70;;;;;;5086623;28;20532;-48
2022/06/07 09:14:39;;;;;;;1.00;0.90;;;20.60;56.70;;;;;;5087608;27;20652;-49
2022/06/07 09:17:22;;;;;;;1.60;1.20;;;20.60;56.80;;;;;;5068183;27;20584;-48
2022/06/07 09:20:05;;;;;;;0.87;0.87;;;20.60;56.80;;;;;;5076941;28;20593;-47
2022/06/07 09:22:53;;;;;;;1.33;1.23;;;20.60;56.90;;;;;;5074066;27;20528;-46
2022/06/07 09:25:38;;;;;;;1.20;1.10;;;20.60;57.00;;;;;;5125965;27;20529;-48
2022/06/07 09:28:26;;;;;;;1.70;1.17;;;20.60;57.00;;;;;;5067137;27;20606;-49
2022/06/07 09:31:10;;;;;;;1.07;0.97;;;20.60;57.00;;;;;;5072606;28;20525;-45
2022/06/07 09:33:53;;;;;;;1.10;1.00;;;20.60;57.00;;;;;;5087895;28;20565;-47
2022/06/07 09:36:40;;;;;;;0.97;0.90;;;20.60;57.00;;;;;;5102837;27;20941;-47
2022/06/07 09:39:28;;;;;;;1.40;1.30;;;20.60;57.00;;;;;;5087445;27;20583;-48
2022/06/07 09:42:18;;;;;;;1.47;1.17;;;20.60;57.10;;;;;;5079626;27;21121;-47
2022/06/07 09:45:02;;;;;;;1.20;1.03;;;20.60;57.10;;;;;;5087456;28;20516;-49
2022/06/07 09:47:43;;;;;;;0.93;0.93;;;20.60;57.20;;;;;;5073563;27;20556;-46
2022/06/07 09:50:31;;;;;;;1.40;1.10;;;20.60;57.20;;;;;;5122808;27;20531;-47
2022/06/07 09:53:17;;;;;;;1.20;1.10;;;20.60;57.20;;;;;;5058405;27;20962;-47
2022/06/07 09:56:07;;;;;;;1.10;0.90;;;20.60;57.20;;;;;;5136777;27;1210339;-48
2022/06/07 09:59:02;;;;;;;1.07;1.00;;;20.60;57.20;;;;;;5109473;27;20947;-48
2022/06/07 10:01:50;;;;;;;1.40;1.30;;;20.60;57.20;;;;;;5082541;28;20583;-49
2022/06/07 10:04:39;;;;;;;1.30;1.20;;;20.60;57.30;;;;;;5083567;27;20536;-49
2022/06/07 10:07:28;;;;;;;1.67;0.90;;;20.60;57.30;;;;;;5068021;27;20543;-48
2022/06/07 10:10:16;;;;;;;1.30;1.00;;;20.60;57.30;;;;;;5083592;28;21052;-46
2022/06/07 10:13:06;;;;;;;1.17;1.00;;;20.60;57.40;;;;;;5062903;28;20539;-48
2022/06/07 10:15:53;;;;;;;1.27;1.17;;;20.60;57.20;;;;;;5133077;27;20582;-46
2022/06/07 10:18:49;;;;;;;1.37;1.27;;;20.60;57.30;;;;;;5047130;27;20953;-48
2022/06/07 10:21:43;;;;;;;1.27;1.17;;;20.60;57.20;;;;;;5079421;28;20529;-47
2022/06/07 10:24:36;;;;;;;1.20;1.10;;;20.60;57.30;;;;;;5087877;27;20557;-47
2022/06/07 10:27:22;;;;;;;1.03;0.93;;;20.60;57.30;;;;;;5127730;27;20532;-47
2022/06/07 10:30:29;;;;;;;1.20;1.10;;;20.60;57.30;;;;;;5127285;27;20585;-47
2022/06/07 10:33:33;;;;;;;0.90;0.90;;;20.60;57.30;;;;;;5033658;27;20548;-49
2022/06/07 10:36:27;;;;;;;1.00;0.90;;;20.60;57.40;;;;;;5075471;27;20674;-47
2022/06/07 10:39:32;;;;;;;3.40;0.93;;;20.60;57.40;;;;;;5088667;27;20601;-47
2022/06/07 10:42:24;;;;;;;0.80;0.80;;;20.60;57.40;;;;;;5075457;28;20941;-48
2022/06/07 10:45:14;;;;;;;1.10;1.00;;;20.60;57.40;;;;;;5107740;27;20591;-46
2022/06/07 10:48:03;;;;;;;0.93;0.90;;;20.60;57.50;;;;;;5066322;27;20546;-48
2022/06/07 10:50:49;;;;;;;1.30;1.20;;;20.60;57.40;;;;;;5112061;27;20537;-48
2022/06/07 10:53:37;;;;;;;0.97;0.83;;;20.60;58.60;;;;;;5090939;27;20547;-49
2022/06/07 10:56:26;;;;;;;1.53;1.00;;;20.60;57.50;;;;;;5124620;27;20574;-47
2022/06/07 10:59:17;;;;;;;1.27;1.17;;;20.60;57.50;;;;;;5070929;27;20525;-45
2022/06/07 11:02:04;;;;;;;1.27;1.17;;;20.60;58.70;;;;;;5114936;27;20601;-49
2022/06/07 11:10:53;;;;;;;1.13;1.10;;;20.60;57.50;;;;;;5129405;27;20813;-46
2022/06/07 11:13:54;;;;;;;1.33;0.97;;;20.60;57.60;;;;;;5067650;27;20606;-47
2022/06/07 11:16:44;;;;;;;1.67;1.47;;;20.60;57.70;;;;;;5126853;27;20536;-47
2022/06/07 11:19:25;;;;;;;1.87;1.17;;;20.60;57.70;;;;;;5071396;27;20601;-46
2022/06/07 11:22:14;;;;;;;1.47;1.37;;;20.50;57.60;;;;;;5076516;28;20967;-48
2022/06/07 11:24:59;;;;;;;1.10;1.00;;;20.50;57.70;;;;;;5072832;28;20542;-49
2022/06/07 11:27:55;;;;;;;1.00;0.93;;;20.60;57.90;;;;;;5069707;27;20663;-49
2022/06/07 11:30:49;;;;;;;1.80;0.93;;;20.50;58.00;;;;;;5128229;27;20856;-48
2022/06/07 11:33:42;;;;;;;0.90;0.90;;;20.50;58.00;;;;;;5060984;27;20604;-46
2022/06/07 11:36:33;;;;;;;1.53;0.80;;;20.60;58.10;;;;;;5106177;27;20926;-48
2022/06/07 11:39:50;;;;;;;1.30;1.20;;;20.50;58.10;;;;;;5068246;28;20642;-48
2022/06/07 11:42:33;;;;;;;0.83;0.80;;;20.50;58.30;;;;;;5055572;27;20536;-48
2022/06/07 11:45:24;;;;;;;3.27;1.07;;;20.50;58.30;;;;;;5087316;28;20574;-49
2022/06/07 11:48:22;;;;;;;1.33;1.07;;;20.50;58.40;;;;;;5034768;28;20971;-48
2022/06/07 11:51:15;;;;;;;1.00;0.90;;;20.60;58.60;;;;;;5087199;28;20577;-48
2022/06/07 11:54:06;;;;;;;1.23;0.90;;;20.50;58.60;;;;;;5136057;27;21057;-47
2022/06/07 11:56:51;;;;;;;1.30;1.03;;;20.60;58.80;;;;;;5071725;28;20598;-48
2022/06/07 11:59:43;;;;;;;2.20;1.27;;;20.60;58.70;;;;;;5099220;27;21114;-48
2022/06/07 12:02:28;;;;;;;1.40;1.23;;;20.60;59.10;;;;;;5063716;27;20534;-49
2022/06/07 12:05:25;;;;;;;1.00;1.00;;;20.60;59.20;;;;;;5106116;27;20603;-47
2022/06/07 12:08:18;;;;;;;1.37;1.00;;;20.60;59.30;;;;;;5099475;27;20551;-48
2022/06/07 12:11:06;;;;;;;1.30;1.20;;;20.60;59.20;;;;;;5124382;27;20578;-48
2022/06/07 12:13:52;;;;;;;1.27;1.17;;;20.60;59.30;;;;;;5128573;27;20563;-49
2022/06/07 12:16:37;;;;;;;0.77;0.73;;;20.60;59.10;;;;;;5081136;27;20661;-45
2022/06/07 12:19:21;;;;;;;1.33;1.20;;;20.60;59.20;;;;;;5116977;27;20545;-47
2022/06/07 12:22:13;;;;;;;1.07;0.97;;;20.60;59.20;;;;;;5067777;28;21126;-47
2022/06/07 12:24:57;;;;;;;1.20;1.10;;;20.60;59.20;;;;;;5085611;28;20665;-50
2022/06/07 12:27:47;;;;;;;1.20;1.03;;;20.60;59.20;;;;;;5064011;27;20550;-47
2022/06/07 12:30:30;;;;;;;0.70;0.70;;;20.60;59.20;;;;;;5128531;27;20524;-49
2022/06/07 12:33:21;;;;;;;1.40;1.30;;;20.60;59.20;;;;;;5086623;27;21050;-48
2022/06/07 12:36:13;;;;;;;0.93;0.90;;;20.60;59.20;;;;;;5125031;27;20625;-46
2022/06/07 12:38:56;;;;;;;1.27;1.17;;;20.60;59.40;;;;;;5113359;27;21049;-48
2022/06/07 12:41:47;;;;;;;2.43;1.23;;;20.60;59.20;;;;;;5123599;27;20627;-47
2022/06/07 12:44:32;;;;;;;1.07;0.97;;;20.60;59.20;;;;;;5085998;28;21043;-49
2022/06/07 12:47:24;;;;;;;1.60;1.10;;;20.60;59.30;;;;;;5081986;27;20953;-48
2022/06/07 12:50:18;;;;;;;1.97;0.87;;;20.60;59.40;;;;;;5107705;27;20594;-46
2022/06/07 12:52:59;;;;;;;0.90;0.90;;;20.60;59.20;;;;;;5085487;27;20977;-47
2022/06/07 12:55:42;;;;;;;1.37;0.90;;;20.60;59.20;;;;;;5083793;27;20585;-47
2022/06/07 12:58:24;;;;;;;1.13;0.97;;;20.60;59.30;;;;;;5064103;27;20545;-48
2022/06/07 13:01:19;;;;;;;0.97;0.87;;;20.60;59.30;;;;;;5086494;27;20552;-46
2022/06/07 13:04:04;;;;;;;1.17;1.07;;;20.60;59.40;;;;;;5126757;27;20547;-49
2022/06/07 13:09:36;;;;;;;1.30;1.20;;;20.60;59.40;;;;;;5102908;27;20518;-48
2022/06/07 13:12:28;;;;;;;1.10;1.00;;;20.60;59.60;;;;;;5101679;27;20543;-47
2022/06/07 13:15:19;;;;;;;1.20;1.10;;;20.60;59.50;;;;;;5087713;27;20998;-48
2022/06/07 13:18:04;;;;;;;0.87;0.87;;;20.60;59.40;;;;;;5054599;27;20555;-47
2022/06/07 13:20:47;;;;;;;0.97;0.80;;;20.60;59.50;;;;;;5121188;27;20748;-47
2022/06/07 13:23:33;;;;;;;1.93;1.10;;;20.60;59.40;;;;;;5069889;27;20540;-47
2022/06/07 13:26:29;;;;;;;0.93;0.93;;;20.60;59.40;;;;;;5084291;28;20552;-46
2022/06/07 13:29:16;;;;;;;1.00;0.90;;;20.60;59.60;;;;;;5107496;27;20542;-49
2022/06/07 13:31:58;;;;;;;1.00;1.00;;;20.60;59.60;;;;;;5101081;27;20535;-48
2022/06/07 13:34:52;;;;;;;1.23;0.90;;;20.60;59.50;;;;;;5086813;27;20621;-47
2022/06/07 13:37:33;;;;;;;1.10;1.00;;;20.60;59.50;;;;;;5084853;27;20552;-48
2022/06/07 13:40:27;;;;;;;2.17;1.17;;;20.70;59.60;;;;;;5112634;27;20550;-46
2022/06/07 13:43:22;;;;;;;1.20;1.10;;;20.70;59.70;;;;;;5102106;27;20547;-49
2022/06/07 13:46:06;;;;;;;1.30;1.10;;;20.70;59.70;;;;;;5126904;27;20657;-47
2022/06/07 13:55:43;;;;;;;1.20;1.10;;;20.70;59.80;;;;;;5105029;27;20590;-47
2022/06/07 13:58:26;;;;;;;0.80;0.80;;;20.70;59.60;;;;;;5069672;27;20542;-45
2022/06/07 14:01:15;;;;;;;1.63;1.10;;;20.70;59.60;;;;;;5087523;27;20571;-48
2022/06/07 14:03:59;;;;;;;1.00;0.90;;;20.70;59.60;;;;;;5127000;27;21054;-46
2022/06/07 14:06:42;;;;;;;1.10;1.00;;;20.70;59.60;;;;;;5118209;27;20568;-47
2022/06/07 14:09:26;;;;;;;0.90;0.70;;;20.70;59.70;;;;;;5087299;28;20601;-46
2022/06/07 14:12:08;;;;;;;1.43;1.00;;;20.70;59.60;;;;;;5098159;27;20561;-46
2022/06/07 14:14:49;;;;;;;1.13;0.70;;;20.70;59.70;;;;;;5108242;27;20933;-47
2022/06/07 14:17:29;;;;;;;0.90;0.80;;;20.70;59.70;;;;;;5096405;27;20529;-47
2022/06/07 14:20:16;;;;;;;0.83;0.83;;;20.70;59.70;;;;;;5080462;27;21128;-46
2022/06/07 14:22:57;;;;;;;1.10;0.70;;;20.70;59.60;;;;;;5061891;27;20585;-47
2022/06/07 14:25:40;;;;;;;1.13;0.80;;;20.70;59.70;;;;;;5109927;27;21147;-49
2022/06/07 14:28:24;;;;;;;1.47;1.37;;;20.70;59.70;;;;;;5067676;27;20554;-46
2022/06/07 14:31:16;;;;;;;1.20;0.90;;;20.70;59.60;;;;;;5087148;28;20569;-48
2022/06/07 14:33:57;;;;;;;1.30;0.87;;;20.70;59.60;;;;;;5069205;27;20528;-48
2022/06/07 14:36:37;;;;;;;1.17;1.00;;;20.70;59.60;;;;;;5136028;27;20535;-49
2022/06/07 14:39:21;;;;;;;1.07;0.97;;;20.70;59.70;;;;;;5079857;27;21109;-46
2022/06/07 14:42:01;;;;;;;0.73;0.73;;;20.80;59.70;;;;;;5075829;28;20948;-49
2022/06/07 14:44:44;;;;;;;1.40;1.17;;;20.70;59.70;;;;;;5128564;27;20923;-48
2022/06/07 14:47:26;;;;;;;1.07;0.97;;;20.70;59.70;;;;;;5057401;28;21052;-48
2022/06/07 14:50:10;;;;;;;1.30;1.20;;;20.70;59.70;;;;;;5081714;28;20946;-48
2022/06/07 14:52:51;;;;;;;0.83;0.83;;;20.70;59.80;;;;;;5048768;28;20587;-49
2022/06/07 14:55:31;;;;;;;1.60;0.87;;;20.70;59.90;;;;;;5084530;27;20942;-45
2022/06/07 14:58:11;;;;;;;1.70;0.90;;;20.70;59.90;;;;;;5039742;27;20533;-49
2022/06/07 15:00:52;;;;;;;1.10;1.00;;;20.80;60.10;;;;;;5087725;28;21196;-47